sensor_id;sensor_type;location;lat;lon;timestamp;pressure;altitude;pressure_sealevel;temperature;humidity
38812;BME280;24553;51.640;-0.752;2024-02-23T00:00:30;97906.91;;;3.94;100.00
38812;BME280;24553;51.640;-0.752;2024-02-23T00:02:55;97921.81;;;4.00;100.00
38812;BME280;24553;51.640;-0.752;2024-02-23T00:05:23;97921.75;;;4.07;100.00
38812;BME280;24553;51.640;-0.752;2024-02-23T00:07:48;97918.28;;;4.13;100.00
38812;BME280;24553;51.640;-0.752;2024-02-23T00:10:13;97912.84;;;4.14;100.00
38812;BME280;24553;51.640;-0.752;2024-02-23T00:12:39;97908.81;;;4.12;100.00
38812;BME280;24553;51.640;-0.752;2024-02-23T00:15:04;97911.00;;;4.15;100.00
38812;BME280;24553;51.640;-0.752;2024-02-23T00:17:30;97923.91;;;4.17;100.00
38812;BME280;24553;51.640;-0.752;2024-02-23T00:19:55;97899.72;;;4.14;100.00
38812;BME280;24553;51.640;-0.752;2024-02-23T00:22:21;97896.81;;;4.23;100.00
38812;BME280;24553;51.640;-0.752;2024-02-23T00:24:46;97894.66;;;4.45;100.00
38812;BME280;24553;51.640;-0.752;2024-02-23T00:27:11;97897.97;;;4.58;100.00
38812;BME280;24553;51.640;-0.752;2024-02-23T00:29:37;97885.63;;;4.59;100.00
38812;BME280;24553;51.640;-0.752;2024-02-23T00:32:03;97886.50;;;4.53;100.00
38812;BME280;24553;51.640;-0.752;2024-02-23T00:34:28;97894.44;;;4.21;100.00
38812;BME280;24553;51.640;-0.752;2024-02-23T00:36:56;97887.44;;;4.40;100.00
38812;BME280;24553;51.640;-0.752;2024-02-23T00:39:21;97880.47;;;4.52;100.00
38812;BME280;24553;51.640;-0.752;2024-02-23T00:41:46;97890.53;;;4.55;100.00
38812;BME280;24553;51.640;-0.752;2024-02-23T00:44:12;97874.72;;;4.62;100.00
38812;BME280;24553;51.640;-0.752;2024-02-23T00:46:37;97873.50;;;4.65;100.00
38812;BME280;24553;51.640;-0.752;2024-02-23T00:49:03;97866.28;;;4.78;100.00
38812;BME280;24553;51.640;-0.752;2024-02-23T00:51:29;97864.47;;;4.79;100.00
38812;BME280;24553;51.640;-0.752;2024-02-23T00:53:54;97863.88;;;4.77;100.00
38812;BME280;24553;51.640;-0.752;2024-02-23T00:56:19;97866.50;;;4.77;100.00
38812;BME280;24553;51.640;-0.752;2024-02-23T00:58:45;97857.63;;;4.78;100.00
38812;BME280;24553;51.640;-0.752;2024-02-23T01:01:10;97853.97;;;4.79;100.00
38812;BME280;24553;51.640;-0.752;2024-02-23T01:03:35;97840.72;;;4.67;100.00
38812;BME280;24553;51.640;-0.752;2024-02-23T01:06:01;97842.13;;;4.70;100.00
38812;BME280;24553;51.640;-0.752;2024-02-23T01:08:26;97833.09;;;4.66;100.00
38812;BME280;24553;51.640;-0.752;2024-02-23T01:10:52;97827.69;;;4.61;100.00
38812;BME280;24553;51.640;-0.752;2024-02-23T01:13:17;97831.75;;;4.56;100.00
38812;BME280;24553;51.640;-0.752;2024-02-23T01:15:42;97823.53;;;4.53;100.00
38812;BME280;24553;51.640;-0.752;2024-02-23T01:18:08;97822.25;;;4.62;100.00
38812;BME280;24553;51.640;-0.752;2024-02-23T01:20:34;97824.44;;;4.65;100.00
38812;BME280;24553;51.640;-0.752;2024-02-23T01:22:59;97806.06;;;4.65;100.00
38812;BME280;24553;51.640;-0.752;2024-02-23T01:25:25;97799.91;;;4.71;100.00
38812;BME280;24553;51.640;-0.752;2024-02-23T01:27:50;97805.16;;;4.71;100.00
38812;BME280;24553;51.640;-0.752;2024-02-23T01:30:15;97798.63;;;4.80;100.00
38812;BME280;24553;51.640;-0.752;2024-02-23T01:32:41;97796.19;;;4.79;100.00
38812;BME280;24553;51.640;-0.752;2024-02-23T01:35:06;97793.28;;;4.87;100.00
38812;BME280;24553;51.640;-0.752;2024-02-23T01:37:33;97784.75;;;4.92;100.00
38812;BME280;24553;51.640;-0.752;2024-02-23T01:39:59;97777.91;;;4.91;100.00
38812;BME280;24553;51.640;-0.752;2024-02-23T01:42:25;97779.94;;;4.89;100.00
38812;BME280;24553;51.640;-0.752;2024-02-23T01:44:51;97780.88;;;4.94;100.00
38812;BME280;24553;51.640;-0.752;2024-02-23T01:47:16;97781.31;;;4.91;100.00
38812;BME280;24553;51.640;-0.752;2024-02-23T01:49:42;97783.56;;;4.88;100.00
38812;BME280;24553;51.640;-0.752;2024-02-23T01:52:07;97774.75;;;4.82;100.00
38812;BME280;24553;51.640;-0.752;2024-02-23T01:54:33;97780.44;;;4.79;100.00
38812;BME280;24553;51.640;-0.752;2024-02-23T01:56:59;97772.00;;;4.77;100.00
38812;BME280;24553;51.640;-0.752;2024-02-23T01:59:25;97784.09;;;4.78;100.00
38812;BME280;24553;51.640;-0.752;2024-02-23T02:01:52;97781.09;;;4.74;100.00
38812;BME280;24553;51.640;-0.752;2024-02-23T02:04:17;97776.50;;;4.70;100.00
38812;BME280;24553;51.640;-0.752;2024-02-23T02:06:45;97768.94;;;4.62;100.00
38812;BME280;24553;51.640;-0.752;2024-02-23T02:09:11;97766.59;;;4.53;100.00
38812;BME280;24553;51.640;-0.752;2024-02-23T02:11:47;97765.44;;;4.49;100.00
38812;BME280;24553;51.640;-0.752;2024-02-23T02:14:13;97762.88;;;4.61;100.00
38812;BME280;24553;51.640;-0.752;2024-02-23T02:16:39;97764.41;;;4.69;100.00
38812;BME280;24553;51.640;-0.752;2024-02-23T02:19:04;97753.47;;;4.72;100.00
38812;BME280;24553;51.640;-0.752;2024-02-23T02:21:31;97748.34;;;4.77;100.00
38812;BME280;24553;51.640;-0.752;2024-02-23T02:23:57;97746.66;;;4.82;100.00
38812;BME280;24553;51.640;-0.752;2024-02-23T02:26:22;97741.22;;;4.84;100.00
38812;BME280;24553;51.640;-0.752;2024-02-23T02:28:47;97732.31;;;4.85;100.00
38812;BME280;24553;51.640;-0.752;2024-02-23T02:31:13;97720.94;;;4.91;100.00
38812;BME280;24553;51.640;-0.752;2024-02-23T02:33:40;97727.72;;;4.99;100.00
38812;BME280;24553;51.640;-0.752;2024-02-23T02:36:06;97719.72;;;5.06;100.00
38812;BME280;24553;51.640;-0.752;2024-02-23T02:38:31;97716.44;;;5.10;100.00
38812;BME280;24553;51.640;-0.752;2024-02-23T02:40:58;97704.00;;;5.17;100.00
38812;BME280;24553;51.640;-0.752;2024-02-23T02:43:25;97696.72;;;5.19;100.00
38812;BME280;24553;51.640;-0.752;2024-02-23T02:45:50;97694.44;;;5.23;100.00
38812;BME280;24553;51.640;-0.752;2024-02-23T02:48:16;97693.63;;;5.22;100.00
38812;BME280;24553;51.640;-0.752;2024-02-23T02:50:42;97696.16;;;5.29;100.00
38812;BME280;24553;51.640;-0.752;2024-02-23T02:53:07;97692.53;;;5.30;100.00
38812;BME280;24553;51.640;-0.752;2024-02-23T02:55:32;97682.59;;;5.44;100.00
38812;BME280;24553;51.640;-0.752;2024-02-23T02:57:58;97682.84;;;5.54;100.00
38812;BME280;24553;51.640;-0.752;2024-02-23T03:00:23;97672.31;;;5.42;100.00
38812;BME280;24553;51.640;-0.752;2024-02-23T03:02:49;97678.50;;;5.60;100.00
38812;BME280;24553;51.640;-0.752;2024-02-23T03:05:14;97673.38;;;5.65;100.00
38812;BME280;24553;51.640;-0.752;2024-02-23T03:07:40;97672.00;;;5.74;100.00
38812;BME280;24553;51.640;-0.752;2024-02-23T03:10:06;97664.69;;;5.76;100.00
38812;BME280;24553;51.640;-0.752;2024-02-23T03:12:31;97666.53;;;5.76;100.00
38812;BME280;24553;51.640;-0.752;2024-02-23T03:14:57;97660.09;;;5.83;100.00
38812;BME280;24553;51.640;-0.752;2024-02-23T03:17:22;97656.00;;;5.87;100.00
38812;BME280;24553;51.640;-0.752;2024-02-23T03:19:48;97658.66;;;5.99;100.00
38812;BME280;24553;51.640;-0.752;2024-02-23T03:22:15;97665.72;;;5.99;100.00
38812;BME280;24553;51.640;-0.752;2024-02-23T03:24:41;97657.84;;;5.99;100.00
38812;BME280;24553;51.640;-0.752;2024-02-23T03:27:06;97667.56;;;5.98;100.00
38812;BME280;24553;51.640;-0.752;2024-02-23T03:29:32;97675.13;;;5.95;100.00
38812;BME280;24553;51.640;-0.752;2024-02-23T03:31:57;97672.69;;;5.93;100.00
38812;BME280;24553;51.640;-0.752;2024-02-23T03:34:24;97673.16;;;5.90;100.00
38812;BME280;24553;51.640;-0.752;2024-02-23T03:36:49;97685.25;;;5.91;100.00
38812;BME280;24553;51.640;-0.752;2024-02-23T03:39:14;97685.97;;;5.86;100.00
38812;BME280;24553;51.640;-0.752;2024-02-23T03:41:40;97680.38;;;5.95;100.00
38812;BME280;24553;51.640;-0.752;2024-02-23T03:44:05;97678.44;;;6.02;100.00
38812;BME280;24553;51.640;-0.752;2024-02-23T03:46:30;97681.19;;;6.07;100.00
38812;BME280;24553;51.640;-0.752;2024-02-23T03:48:56;97677.41;;;6.15;100.00
38812;BME280;24553;51.640;-0.752;2024-02-23T03:51:21;97686.44;;;6.19;100.00
38812;BME280;24553;51.640;-0.752;2024-02-23T03:53:47;97689.41;;;6.10;100.00
38812;BME280;24553;51.640;-0.752;2024-02-23T03:56:12;97688.50;;;6.05;100.00
38812;BME280;24553;51.640;-0.752;2024-02-23T03:58:38;97690.88;;;6.06;100.00
38812;BME280;24553;51.640;-0.752;2024-02-23T04:01:03;97687.00;;;6.09;100.00
38812;BME280;24553;51.640;-0.752;2024-02-23T04:03:28;97696.63;;;6.03;100.00
38812;BME280;24553;51.640;-0.752;2024-02-23T04:05:54;97697.19;;;6.05;100.00
38812;BME280;24553;51.640;-0.752;2024-02-23T04:08:19;97692.16;;;6.04;100.00
38812;BME280;24553;51.640;-0.752;2024-02-23T04:10:44;97703.03;;;6.07;100.00
38812;BME280;24553;51.640;-0.752;2024-02-23T04:13:10;97698.22;;;6.04;100.00
38812;BME280;24553;51.640;-0.752;2024-02-23T04:15:39;97695.94;;;6.08;100.00
38812;BME280;24553;51.640;-0.752;2024-02-23T04:18:04;97686.44;;;6.07;100.00
38812;BME280;24553;51.640;-0.752;2024-02-23T04:20:30;97684.50;;;6.02;100.00
38812;BME280;24553;51.640;-0.752;2024-02-23T04:22:55;97686.66;;;6.05;100.00
38812;BME280;24553;51.640;-0.752;2024-02-23T04:25:20;97692.97;;;6.04;100.00
38812;BME280;24553;51.640;-0.752;2024-02-23T04:27:46;97682.44;;;6.04;100.00
38812;BME280;24553;51.640;-0.752;2024-02-23T04:30:11;97693.78;;;6.05;100.00
38812;BME280;24553;51.640;-0.752;2024-02-23T04:32:38;97691.25;;;6.10;100.00
38812;BME280;24553;51.640;-0.752;2024-02-23T04:35:04;97706.25;;;6.09;100.00
38812;BME280;24553;51.640;-0.752;2024-02-23T04:37:30;97724.97;;;6.13;100.00
38812;BME280;24553;51.640;-0.752;2024-02-23T04:39:55;97722.00;;;6.21;100.00
38812;BME280;24553;51.640;-0.752;2024-02-23T04:42:20;97715.50;;;6.12;100.00
38812;BME280;24553;51.640;-0.752;2024-02-23T04:44:46;97725.00;;;6.25;100.00
38812;BME280;24553;51.640;-0.752;2024-02-23T04:47:11;97719.50;;;6.15;100.00
38812;BME280;24553;51.640;-0.752;2024-02-23T04:49:37;97719.28;;;6.04;100.00
38812;BME280;24553;51.640;-0.752;2024-02-23T04:52:02;97707.22;;;5.85;100.00
38812;BME280;24553;51.640;-0.752;2024-02-23T04:54:28;97710.16;;;5.65;100.00
38812;BME280;24553;51.640;-0.752;2024-02-23T04:56:53;97711.00;;;5.89;100.00
38812;BME280;24553;51.640;-0.752;2024-02-23T04:59:18;97709.38;;;5.88;100.00
38812;BME280;24553;51.640;-0.752;2024-02-23T05:01:44;97709.72;;;5.80;100.00
38812;BME280;24553;51.640;-0.752;2024-02-23T05:04:09;97704.03;;;5.71;100.00
38812;BME280;24553;51.640;-0.752;2024-02-23T05:06:35;97709.63;;;5.63;100.00
38812;BME280;24553;51.640;-0.752;2024-02-23T05:09:00;97710.78;;;5.37;100.00
38812;BME280;24553;51.640;-0.752;2024-02-23T05:11:26;97714.63;;;5.53;100.00
38812;BME280;24553;51.640;-0.752;2024-02-23T05:13:52;97721.28;;;5.79;100.00
38812;BME280;24553;51.640;-0.752;2024-02-23T05:16:17;97714.06;;;5.86;100.00
38812;BME280;24553;51.640;-0.752;2024-02-23T05:18:43;97704.94;;;5.88;100.00
38812;BME280;24553;51.640;-0.752;2024-02-23T05:21:09;97718.19;;;5.70;100.00
38812;BME280;24553;51.640;-0.752;2024-02-23T05:23:35;97714.19;;;5.91;100.00
38812;BME280;24553;51.640;-0.752;2024-02-23T05:26:00;97727.47;;;5.84;100.00
38812;BME280;24553;51.640;-0.752;2024-02-23T05:28:25;97728.13;;;5.80;100.00
38812;BME280;24553;51.640;-0.752;2024-02-23T05:30:51;97730.13;;;5.96;100.00
38812;BME280;24553;51.640;-0.752;2024-02-23T05:33:16;97731.84;;;6.02;100.00
38812;BME280;24553;51.640;-0.752;2024-02-23T05:35:45;97739.63;;;5.97;100.00
38812;BME280;24553;51.640;-0.752;2024-02-23T05:38:10;97734.44;;;5.90;100.00
38812;BME280;24553;51.640;-0.752;2024-02-23T05:40:36;97730.66;;;5.75;100.00
38812;BME280;24553;51.640;-0.752;2024-02-23T05:43:01;97737.38;;;5.59;100.00
38812;BME280;24553;51.640;-0.752;2024-02-23T05:45:26;97739.00;;;5.72;100.00
38812;BME280;24553;51.640;-0.752;2024-02-23T05:47:52;97737.53;;;5.76;100.00
38812;BME280;24553;51.640;-0.752;2024-02-23T05:50:17;97746.78;;;5.78;100.00
38812;BME280;24553;51.640;-0.752;2024-02-23T05:52:42;97747.56;;;5.67;100.00
38812;BME280;24553;51.640;-0.752;2024-02-23T05:55:08;97753.63;;;5.79;100.00
38812;BME280;24553;51.640;-0.752;2024-02-23T05:57:33;97756.25;;;5.91;100.00
38812;BME280;24553;51.640;-0.752;2024-02-23T05:59:59;97758.91;;;5.79;100.00
38812;BME280;24553;51.640;-0.752;2024-02-23T06:02:24;97757.47;;;5.95;100.00
38812;BME280;24553;51.640;-0.752;2024-02-23T06:04:49;97765.56;;;5.94;100.00
38812;BME280;24553;51.640;-0.752;2024-02-23T06:07:15;97764.63;;;5.76;100.00
38812;BME280;24553;51.640;-0.752;2024-02-23T06:09:45;97756.81;;;5.69;100.00
38812;BME280;24553;51.640;-0.752;2024-02-23T06:12:11;97762.28;;;5.56;100.00
38812;BME280;24553;51.640;-0.752;2024-02-23T06:14:36;97777.56;;;5.47;100.00
38812;BME280;24553;51.640;-0.752;2024-02-23T06:17:02;97767.31;;;5.58;100.00
38812;BME280;24553;51.640;-0.752;2024-02-23T06:19:28;97766.75;;;5.56;100.00
38812;BME280;24553;51.640;-0.752;2024-02-23T06:21:54;97769.25;;;5.51;100.00
38812;BME280;24553;51.640;-0.752;2024-02-23T06:24:19;97776.41;;;5.43;100.00
38812;BME280;24553;51.640;-0.752;2024-02-23T06:26:45;97776.66;;;5.54;100.00
38812;BME280;24553;51.640;-0.752;2024-02-23T06:29:11;97771.03;;;5.38;100.00
38812;BME280;24553;51.640;-0.752;2024-02-23T06:31:38;97758.97;;;5.19;100.00
38812;BME280;24553;51.640;-0.752;2024-02-23T06:34:04;97768.66;;;5.18;100.00
38812;BME280;24553;51.640;-0.752;2024-02-23T06:36:30;97774.59;;;4.95;100.00
38812;BME280;24553;51.640;-0.752;2024-02-23T06:38:55;97783.66;;;4.99;100.00
38812;BME280;24553;51.640;-0.752;2024-02-23T06:41:21;97795.47;;;5.09;100.00
38812;BME280;24553;51.640;-0.752;2024-02-23T06:43:46;97799.09;;;5.08;100.00
38812;BME280;24553;51.640;-0.752;2024-02-23T06:46:11;97787.00;;;5.07;100.00
38812;BME280;24553;51.640;-0.752;2024-02-23T06:48:38;97796.19;;;4.97;100.00
38812;BME280;24553;51.640;-0.752;2024-02-23T06:51:06;97786.28;;;4.81;100.00
38812;BME280;24553;51.640;-0.752;2024-02-23T06:53:35;97791.69;;;4.86;100.00
38812;BME280;24553;51.640;-0.752;2024-02-23T06:56:00;97791.97;;;4.96;100.00
38812;BME280;24553;51.640;-0.752;2024-02-23T06:58:26;97797.84;;;5.10;100.00
38812;BME280;24553;51.640;-0.752;2024-02-23T07:00:52;97802.38;;;5.03;100.00
38812;BME280;24553;51.640;-0.752;2024-02-23T07:03:17;97799.31;;;4.88;100.00
38812;BME280;24553;51.640;-0.752;2024-02-23T07:05:43;97799.47;;;4.74;100.00
38812;BME280;24553;51.640;-0.752;2024-02-23T07:08:09;97806.06;;;4.65;100.00
38812;BME280;24553;51.640;-0.752;2024-02-23T07:10:34;97805.47;;;4.63;100.00
38812;BME280;24553;51.640;-0.752;2024-02-23T07:13:00;97811.22;;;4.53;100.00
38812;BME280;24553;51.640;-0.752;2024-02-23T07:15:25;97813.78;;;4.60;100.00
38812;BME280;24553;51.640;-0.752;2024-02-23T07:17:53;97820.56;;;4.68;100.00
38812;BME280;24553;51.640;-0.752;2024-02-23T07:20:18;97819.47;;;4.75;100.00
38812;BME280;24553;51.640;-0.752;2024-02-23T07:22:44;97825.22;;;4.84;100.00
38812;BME280;24553;51.640;-0.752;2024-02-23T07:25:11;97821.50;;;4.92;100.00
38812;BME280;24553;51.640;-0.752;2024-02-23T07:27:36;97817.66;;;4.94;100.00
38812;BME280;24553;51.640;-0.752;2024-02-23T07:30:01;97816.06;;;4.93;100.00
38812;BME280;24553;51.640;-0.752;2024-02-23T07:32:28;97820.78;;;4.85;100.00
38812;BME280;24553;51.640;-0.752;2024-02-23T07:34:54;97822.50;;;4.72;100.00
38812;BME280;24553;51.640;-0.752;2024-02-23T07:37:20;97822.75;;;4.71;100.00
38812;BME280;24553;51.640;-0.752;2024-02-23T07:39:45;97829.44;;;4.67;100.00
38812;BME280;24553;51.640;-0.752;2024-02-23T07:42:10;97840.47;;;4.57;100.00
38812;BME280;24553;51.640;-0.752;2024-02-23T07:44:36;97834.50;;;4.43;100.00
38812;BME280;24553;51.640;-0.752;2024-02-23T07:47:02;97843.13;;;4.50;100.00
38812;BME280;24553;51.640;-0.752;2024-02-23T07:49:28;97853.44;;;4.52;100.00
38812;BME280;24553;51.640;-0.752;2024-02-23T07:51:54;97850.41;;;4.48;100.00
38812;BME280;24553;51.640;-0.752;2024-02-23T07:54:19;97849.47;;;4.43;100.00
38812;BME280;24553;51.640;-0.752;2024-02-23T07:56:44;97850.41;;;4.48;100.00
38812;BME280;24553;51.640;-0.752;2024-02-23T07:59:10;97859.38;;;4.59;100.00
38812;BME280;24553;51.640;-0.752;2024-02-23T08:01:35;97864.16;;;4.69;100.00
38812;BME280;24553;51.640;-0.752;2024-02-23T08:04:00;97866.94;;;4.74;100.00
38812;BME280;24553;51.640;-0.752;2024-02-23T08:06:26;97882.56;;;4.87;100.00
38812;BME280;24553;51.640;-0.752;2024-02-23T08:08:51;97880.31;;;4.91;100.00
38812;BME280;24553;51.640;-0.752;2024-02-23T08:11:19;97882.50;;;5.12;100.00
38812;BME280;24553;51.640;-0.752;2024-02-23T08:13:44;97874.41;;;5.32;100.00
38812;BME280;24553;51.640;-0.752;2024-02-23T08:16:09;97872.47;;;5.39;100.00
38812;BME280;24553;51.640;-0.752;2024-02-23T08:18:35;97875.69;;;5.41;100.00
38812;BME280;24553;51.640;-0.752;2024-02-23T08:21:01;97881.66;;;5.49;100.00
38812;BME280;24553;51.640;-0.752;2024-02-23T08:23:28;97884.91;;;5.62;100.00
38812;BME280;24553;51.640;-0.752;2024-02-23T08:25:55;97885.91;;;5.80;100.00
38812;BME280;24553;51.640;-0.752;2024-02-23T08:28:22;97884.56;;;5.89;100.00
38812;BME280;24553;51.640;-0.752;2024-02-23T08:30:47;97880.53;;;6.05;100.00
38812;BME280;24553;51.640;-0.752;2024-02-23T08:33:13;97882.50;;;6.21;100.00
38812;BME280;24553;51.640;-0.752;2024-02-23T08:35:39;97891.69;;;6.30;100.00
38812;BME280;24553;51.640;-0.752;2024-02-23T08:38:04;97891.81;;;6.47;100.00
38812;BME280;24553;51.640;-0.752;2024-02-23T08:40:29;97886.56;;;6.83;100.00
38812;BME280;24553;51.640;-0.752;2024-02-23T08:42:55;97886.31;;;6.96;100.00
38812;BME280;24553;51.640;-0.752;2024-02-23T08:45:20;97893.66;;;7.06;100.00
38812;BME280;24553;51.640;-0.752;2024-02-23T08:47:45;97900.13;;;7.27;100.00
38812;BME280;24553;51.640;-0.752;2024-02-23T08:50:11;97900.97;;;7.56;100.00
38812;BME280;24553;51.640;-0.752;2024-02-23T08:52:36;97897.63;;;7.72;100.00
38812;BME280;24553;51.640;-0.752;2024-02-23T08:55:02;97909.75;;;7.73;100.00
38812;BME280;24553;51.640;-0.752;2024-02-23T08:57:28;97895.25;;;7.88;100.00
38812;BME280;24553;51.640;-0.752;2024-02-23T08:59:53;97894.56;;;8.09;100.00
38812;BME280;24553;51.640;-0.752;2024-02-23T09:02:20;97892.63;;;8.04;100.00
38812;BME280;24553;51.640;-0.752;2024-02-23T09:04:45;97890.75;;;8.17;100.00
38812;BME280;24553;51.640;-0.752;2024-02-23T09:07:11;97887.06;;;8.35;100.00
38812;BME280;24553;51.640;-0.752;2024-02-23T09:09:37;97895.47;;;8.32;100.00
38812;BME280;24553;51.640;-0.752;2024-02-23T09:12:02;97889.94;;;8.33;100.00
38812;BME280;24553;51.640;-0.752;2024-02-23T09:14:27;97890.47;;;8.18;100.00
38812;BME280;24553;51.640;-0.752;2024-02-23T09:16:53;97900.59;;;8.21;100.00
38812;BME280;24553;51.640;-0.752;2024-02-23T09:19:19;97899.78;;;8.38;100.00
38812;BME280;24553;51.640;-0.752;2024-02-23T09:21:45;97892.28;;;8.46;100.00
38812;BME280;24553;51.640;-0.752;2024-02-23T09:24:10;97893.09;;;8.64;100.00
38812;BME280;24553;51.640;-0.752;2024-02-23T09:26:36;97899.50;;;8.68;100.00
38812;BME280;24553;51.640;-0.752;2024-02-23T09:29:01;97891.16;;;8.59;100.00
38812;BME280;24553;51.640;-0.752;2024-02-23T09:31:27;97897.28;;;8.60;100.00
38812;BME280;24553;51.640;-0.752;2024-02-23T09:33:54;97895.03;;;8.68;100.00
38812;BME280;24553;51.640;-0.752;2024-02-23T09:36:20;97902.31;;;8.78;100.00
38812;BME280;24553;51.640;-0.752;2024-02-23T09:38:45;97899.16;;;8.81;100.00
38812;BME280;24553;51.640;-0.752;2024-02-23T09:41:17;97893.16;;;8.69;100.00
38812;BME280;24553;51.640;-0.752;2024-02-23T09:43:44;97893.31;;;8.79;100.00
38812;BME280;24553;51.640;-0.752;2024-02-23T09:46:11;97893.59;;;9.16;100.00
38812;BME280;24553;51.640;-0.752;2024-02-23T09:48:38;97887.66;;;9.31;100.00
38812;BME280;24553;51.640;-0.752;2024-02-23T09:51:04;97888.91;;;9.46;100.00
38812;BME280;24553;51.640;-0.752;2024-02-23T09:53:31;97893.94;;;9.47;100.00
38812;BME280;24553;51.640;-0.752;2024-02-23T09:55:57;97888.47;;;9.54;100.00
38812;BME280;24553;51.640;-0.752;2024-02-23T09:58:25;97885.72;;;9.66;100.00
38812;BME280;24553;51.640;-0.752;2024-02-23T10:00:52;97891.91;;;9.76;100.00
38812;BME280;24553;51.640;-0.752;2024-02-23T10:03:17;97893.03;;;9.86;100.00
38812;BME280;24553;51.640;-0.752;2024-02-23T10:05:43;97889.16;;;9.93;100.00
38812;BME280;24553;51.640;-0.752;2024-02-23T10:08:09;97892.34;;;9.95;100.00
38812;BME280;24553;51.640;-0.752;2024-02-23T10:10:35;97890.25;;;9.97;100.00
38812;BME280;24553;51.640;-0.752;2024-02-23T10:13:02;97894.13;;;10.17;100.00
38812;BME280;24553;51.640;-0.752;2024-02-23T10:15:29;97896.75;;;10.39;100.00
38812;BME280;24553;51.640;-0.752;2024-02-23T10:17:56;97902.88;;;10.77;100.00
38812;BME280;24553;51.640;-0.752;2024-02-23T10:20:21;97891.22;;;10.83;100.00
38812;BME280;24553;51.640;-0.752;2024-02-23T10:22:47;97886.00;;;10.93;100.00
38812;BME280;24553;51.640;-0.752;2024-02-23T10:25:12;97889.25;;;11.05;100.00
38812;BME280;24553;51.640;-0.752;2024-02-23T10:27:37;97890.19;;;10.89;100.00
38812;BME280;24553;51.640;-0.752;2024-02-23T10:30:03;97883.84;;;10.85;100.00
38812;BME280;24553;51.640;-0.752;2024-02-23T10:32:29;97893.97;;;10.98;100.00
38812;BME280;24553;51.640;-0.752;2024-02-23T10:35:00;97901.66;;;10.95;100.00
38812;BME280;24553;51.640;-0.752;2024-02-23T10:37:26;97891.44;;;10.76;100.00
38812;BME280;24553;51.640;-0.752;2024-02-23T10:39:55;97886.34;;;10.64;100.00
38812;BME280;24553;51.640;-0.752;2024-02-23T10:42:23;97896.03;;;10.86;100.00
38812;BME280;24553;51.640;-0.752;2024-02-23T10:44:50;97893.16;;;10.93;100.00
38812;BME280;24553;51.640;-0.752;2024-02-23T10:47:16;97899.28;;;10.98;100.00
38812;BME280;24553;51.640;-0.752;2024-02-23T10:49:44;97898.06;;;10.74;100.00
38812;BME280;24553;51.640;-0.752;2024-02-23T10:52:11;97890.88;;;10.69;100.00
38812;BME280;24553;51.640;-0.752;2024-02-23T10:54:39;97900.16;;;10.66;100.00
38812;BME280;24553;51.640;-0.752;2024-02-23T10:57:05;97907.34;;;10.76;100.00
38812;BME280;24553;51.640;-0.752;2024-02-23T10:59:31;97900.00;;;10.46;100.00
38812;BME280;24553;51.640;-0.752;2024-02-23T11:01:57;97901.78;;;10.73;100.00
38812;BME280;24553;51.640;-0.752;2024-02-23T11:04:25;97893.00;;;10.67;100.00
38812;BME280;24553;51.640;-0.752;2024-02-23T11:06:51;97894.41;;;10.80;100.00
38812;BME280;24553;51.640;-0.752;2024-02-23T11:09:20;97900.03;;;10.94;100.00
38812;BME280;24553;51.640;-0.752;2024-02-23T11:11:53;97905.69;;;11.02;100.00
38812;BME280;24553;51.640;-0.752;2024-02-23T11:14:31;97908.88;;;11.09;100.00
38812;BME280;24553;51.640;-0.752;2024-02-23T11:17:00;97904.72;;;11.24;100.00
38812;BME280;24553;51.640;-0.752;2024-02-23T11:19:39;97898.81;;;11.11;100.00
38812;BME280;24553;51.640;-0.752;2024-02-23T11:22:09;97902.94;;;10.87;100.00
38812;BME280;24553;51.640;-0.752;2024-02-23T11:24:34;97906.09;;;10.89;100.00
38812;BME280;24553;51.640;-0.752;2024-02-23T11:27:01;97901.16;;;10.60;100.00
38812;BME280;24553;51.640;-0.752;2024-02-23T11:29:33;97902.91;;;10.82;100.00
38812;BME280;24553;51.640;-0.752;2024-02-23T11:32:00;97905.09;;;10.95;100.00
38812;BME280;24553;51.640;-0.752;2024-02-23T11:34:29;97898.19;;;10.94;100.00
38812;BME280;24553;51.640;-0.752;2024-02-23T11:36:54;97907.53;;;11.07;100.00
38812;BME280;24553;51.640;-0.752;2024-02-23T11:39:21;97911.84;;;11.13;100.00
38812;BME280;24553;51.640;-0.752;2024-02-23T11:41:50;97904.78;;;11.34;100.00
38812;BME280;24553;51.640;-0.752;2024-02-23T11:44:16;97902.25;;;11.65;100.00
38812;BME280;24553;51.640;-0.752;2024-02-23T11:46:44;97899.84;;;11.68;100.00
38812;BME280;24553;51.640;-0.752;2024-02-23T11:49:14;97899.28;;;11.56;100.00
38812;BME280;24553;51.640;-0.752;2024-02-23T11:51:41;97892.41;;;11.65;100.00
38812;BME280;24553;51.640;-0.752;2024-02-23T11:54:06;97889.44;;;11.41;100.00
38812;BME280;24553;51.640;-0.752;2024-02-23T11:56:32;97888.88;;;11.39;100.00
38812;BME280;24553;51.640;-0.752;2024-02-23T11:58:57;97885.47;;;11.49;100.00
38812;BME280;24553;51.640;-0.752;2024-02-23T12:01:23;97890.66;;;11.86;100.00
38812;BME280;24553;51.640;-0.752;2024-02-23T12:03:48;97893.06;;;12.23;100.00
38812;BME280;24553;51.640;-0.752;2024-02-23T12:06:14;97889.38;;;12.30;100.00
38812;BME280;24553;51.640;-0.752;2024-02-23T12:08:43;97873.69;;;12.08;100.00
38812;BME280;24553;51.640;-0.752;2024-02-23T12:11:11;97866.78;;;12.17;100.00
38812;BME280;24553;51.640;-0.752;2024-02-23T12:13:37;97872.63;;;11.98;100.00
38812;BME280;24553;51.640;-0.752;2024-02-23T12:16:03;97880.09;;;12.37;100.00
38812;BME280;24553;51.640;-0.752;2024-02-23T12:18:29;97875.03;;;12.46;100.00
38812;BME280;24553;51.640;-0.752;2024-02-23T12:21:01;97871.56;;;12.35;100.00
38812;BME280;24553;51.640;-0.752;2024-02-23T12:23:37;97869.19;;;12.18;100.00
38812;BME280;24553;51.640;-0.752;2024-02-23T12:26:02;97871.03;;;12.13;100.00
38812;BME280;24553;51.640;-0.752;2024-02-23T12:28:28;97864.94;;;12.22;100.00
38812;BME280;24553;51.640;-0.752;2024-02-23T12:31:00;97871.31;;;12.32;100.00
38812;BME280;24553;51.640;-0.752;2024-02-23T12:33:36;97867.34;;;12.24;100.00
38812;BME280;24553;51.640;-0.752;2024-02-23T12:36:05;97876.88;;;12.56;100.00
38812;BME280;24553;51.640;-0.752;2024-02-23T12:38:32;97874.22;;;12.76;100.00
38812;BME280;24553;51.640;-0.752;2024-02-23T12:40:57;97868.91;;;12.66;100.00